PWSweather.com
Personal Weather Stations
Station Observations
WXGLH1124
Southern Oaks, Indianapolis, IN 46217

Southern OaksIndianapolis, IN 46217

Lat: 39.65113, Lon: -86.16866

Elevation: 720

Station Type: Vantage Pro2

High Low Average
Temperature 6.1°F-14.4°C -8.1°F-22.3°C 0.2°F-17.7°C
Dew Point -2.9°F-19.4°C -19.6°F-28.7°C -9.9°F-23.3°C
Winds 14.0 mph 22.5 kmh Calm Calm 5.0 mph W8.0 kmh W
Wind Gusts 19.0 mph30.6 kmh -- 9.0 mph14.5 kmh
Humidity 77% 53% 62%
Pressure 30.51 in1033.2 mb 30.13 in1020.3 mb -
Precipitation 0.00 in0.0 mm - -
Hour Temp Dew Point Humidity Winds Wind Gusts Pressure Precip Precip Rate Daily Precip Total
12:05 AM 8.2°F-13.2°C -4.6°F-20.3°C 55% 7.0 mph NW11.3 kmh NW 10.0 mph16.1 kmh 30.16 in1021.3 mb 0.00 in0.0 mm 0.00 in0.0 mm 0.00 in0.0 mm
12:09 AM 8.0°F-13.3°C -5.6°F-20.9°C 53% 5.0 mph NNW8.0 kmh NNW 7.0 mph11.3 kmh 30.16 in1021.3 mb 0.00 in0.0 mm 0.00 in0.0 mm 0.00 in0.0 mm
12:15 AM 7.7°F-13.5°C -6.3°F-21.3°C 52% 4.0 mph NW6.4 kmh NW 15.0 mph24.1 kmh 30.16 in1021.3 mb 0.00 in0.0 mm 0.00 in0.0 mm 0.00 in0.0 mm
12:20 AM 7.4°F-13.7°C -6.5°F-21.4°C 52% 4.0 mph NW6.4 kmh NW 11.0 mph17.7 kmh 30.16 in1021.3 mb 0.00 in0.0 mm 0.00 in0.0 mm 0.00 in0.0 mm
12:25 AM 7.2°F-13.8°C -6.7°F-21.5°C 52% 1.0 mph NW1.6 kmh NW 9.0 mph14.5 kmh 30.16 in1021.3 mb 0.00 in0.0 mm 0.00 in0.0 mm 0.00 in0.0 mm
12:30 AM 7.1°F-13.8°C -6.8°F-21.6°C 52% 3.0 mph WSW4.8 kmh WSW 10.0 mph16.1 kmh 30.16 in1021.3 mb 0.00 in0.0 mm 0.00 in0.0 mm 0.00 in0.0 mm
12:34 AM 6.9°F-13.9°C -7.0°F-21.7°C 52% 4.0 mph NW6.4 kmh NW 8.0 mph12.9 kmh 30.16 in1021.3 mb 0.00 in0.0 mm 0.00 in0.0 mm 0.00 in0.0 mm
12:40 AM 6.7°F-14.1°C -6.8°F-21.6°C 53% 5.0 mph WNW8.0 kmh WNW 9.0 mph14.5 kmh 30.16 in1021.3 mb 0.00 in0.0 mm 0.00 in0.0 mm 0.00 in0.0 mm
12:45 AM 6.5°F-14.2°C -7.0°F-21.7°C 53% 6.0 mph W9.7 kmh W 9.0 mph14.5 kmh 30.16 in1021.3 mb 0.00 in0.0 mm 0.00 in0.0 mm 0.00 in0.0 mm
12:50 AM 6.4°F-14.2°C -6.7°F-21.5°C 54% 5.0 mph NW8.0 kmh NW 9.0 mph14.5 kmh 30.17 in1021.7 mb 0.00 in0.0 mm 0.00 in0.0 mm 0.00 in0.0 mm
12:55 AM 6.3°F-14.3°C -7.2°F-21.8°C 53% 4.0 mph NW6.4 kmh NW 11.0 mph17.7 kmh 30.17 in1021.7 mb 0.00 in0.0 mm 0.00 in0.0 mm 0.00 in0.0 mm
12:59 AM 6.2°F-14.3°C -7.3°F-21.8°C 53% 5.0 mph NW8.0 kmh NW 9.0 mph14.5 kmh 30.17 in1021.7 mb 0.00 in0.0 mm 0.00 in0.0 mm 0.00 in0.0 mm
01:05 AM 6.1°F-14.4°C -7.0°F-21.7°C 54% 4.0 mph NW6.4 kmh NW 10.0 mph16.1 kmh 30.17 in1021.7 mb 0.00 in0.0 mm 0.00 in0.0 mm 0.00 in0.0 mm
01:10 AM 6.0°F-14.4°C -7.1°F-21.7°C 54% 5.0 mph NW8.0 kmh NW 8.0 mph12.9 kmh 30.17 in1021.7 mb 0.00 in0.0 mm 0.00 in0.0 mm 0.00 in0.0 mm
01:14 AM 5.9°F-14.5°C -7.2°F-21.8°C 54% 2.0 mph NNW3.2 kmh NNW 7.0 mph11.3 kmh 30.17 in1021.7 mb 0.00 in0.0 mm 0.00 in0.0 mm 0.00 in0.0 mm
01:19 AM 5.8°F-14.6°C -6.9°F-21.6°C 55% 3.0 mph NW4.8 kmh NW 7.0 mph11.3 kmh 30.17 in1021.7 mb 0.00 in0.0 mm 0.00 in0.0 mm 0.00 in0.0 mm
01:24 AM 5.8°F-14.6°C -6.9°F-21.6°C 55% 3.0 mph NW4.8 kmh NW 11.0 mph17.7 kmh 30.18 in1022.0 mb 0.00 in0.0 mm 0.00 in0.0 mm 0.00 in0.0 mm
01:30 AM 5.6°F-14.7°C -7.1°F-21.7°C 55% 5.0 mph NW8.0 kmh NW 8.0 mph12.9 kmh 30.17 in1021.7 mb 0.00 in0.0 mm 0.00 in0.0 mm 0.00 in0.0 mm
01:35 AM 5.4°F-14.8°C -6.9°F-21.6°C 56% 5.0 mph NW8.0 kmh NW 8.0 mph12.9 kmh 30.18 in1022.0 mb 0.00 in0.0 mm 0.00 in0.0 mm 0.00 in0.0 mm
01:40 AM 5.3°F-14.8°C -7.0°F-21.7°C 56% Calm Calm 4.0 mph6.4 kmh 30.18 in1022.0 mb 0.00 in0.0 mm 0.00 in0.0 mm 0.00 in0.0 mm
01:45 AM 5.1°F-14.9°C -7.2°F-21.8°C 56% 4.0 mph NW6.4 kmh NW 8.0 mph12.9 kmh 30.18 in1022.0 mb 0.00 in0.0 mm 0.00 in0.0 mm 0.00 in0.0 mm
01:50 AM 4.9°F-15.1°C -7.7°F-22.1°C 55% 6.0 mph NNW9.7 kmh NNW 8.0 mph12.9 kmh 30.17 in1021.7 mb 0.00 in0.0 mm 0.00 in0.0 mm 0.00 in0.0 mm
01:55 AM 4.8°F-15.1°C -7.8°F-22.1°C 55% 3.0 mph NW4.8 kmh NW 8.0 mph12.9 kmh 30.18 in1022.0 mb 0.00 in0.0 mm 0.00 in0.0 mm 0.00 in0.0 mm
02:00 AM 4.7°F-15.2°C -7.9°F-22.2°C 55% 2.0 mph NW3.2 kmh NW 8.0 mph12.9 kmh 30.18 in1022.0 mb 0.00 in0.0 mm 0.00 in0.0 mm 0.00 in0.0 mm
02:04 AM 4.6°F-15.2°C -7.6°F-22.0°C 56% 5.0 mph NW8.0 kmh NW 10.0 mph16.1 kmh 30.18 in1022.0 mb 0.00 in0.0 mm 0.00 in0.0 mm 0.00 in0.0 mm
02:10 AM 4.5°F-15.3°C -7.7°F-22.1°C 56% 7.0 mph NW11.3 kmh NW 12.0 mph19.3 kmh 30.18 in1022.0 mb 0.00 in0.0 mm 0.00 in0.0 mm 0.00 in0.0 mm
02:15 AM 4.4°F-15.3°C -7.8°F-22.1°C 56% 5.0 mph NW8.0 kmh NW 7.0 mph11.3 kmh 30.19 in1022.4 mb 0.00 in0.0 mm 0.00 in0.0 mm 0.00 in0.0 mm
02:19 AM 4.3°F-15.4°C -7.9°F-22.2°C 56% 2.0 mph NW3.2 kmh NW 8.0 mph12.9 kmh 30.18 in1022.0 mb 0.00 in0.0 mm 0.00 in0.0 mm 0.00 in0.0 mm
02:25 AM 4.2°F-15.4°C -7.7°F-22.1°C 57% Calm Calm 7.0 mph11.3 kmh 30.18 in1022.0 mb 0.00 in0.0 mm 0.00 in0.0 mm 0.00 in0.0 mm
02:30 AM 4.1°F-15.5°C -7.7°F-22.1°C 57% 4.0 mph WNW6.4 kmh WNW 10.0 mph16.1 kmh 30.18 in1022.0 mb 0.00 in0.0 mm 0.00 in0.0 mm 0.00 in0.0 mm
02:34 AM 4.0°F-15.6°C -7.8°F-22.1°C 57% 7.0 mph W11.3 kmh W 11.0 mph17.7 kmh 30.18 in1022.0 mb 0.00 in0.0 mm 0.00 in0.0 mm 0.00 in0.0 mm
02:40 AM 4.0°F-15.6°C -8.2°F-22.3°C 56% 6.0 mph NW9.7 kmh NW 11.0 mph17.7 kmh 30.18 in1022.0 mb 0.00 in0.0 mm 0.00 in0.0 mm 0.00 in0.0 mm
02:45 AM 3.8°F-15.7°C -8.8°F-22.7°C 55% 8.0 mph NW12.9 kmh NW 8.0 mph12.9 kmh 30.18 in1022.0 mb 0.00 in0.0 mm 0.00 in0.0 mm 0.00 in0.0 mm
02:50 AM 3.8°F-15.7°C -8.8°F-22.7°C 55% 4.0 mph WNW6.4 kmh WNW 11.0 mph17.7 kmh 30.18 in1022.0 mb 0.00 in0.0 mm 0.00 in0.0 mm 0.00 in0.0 mm
02:55 AM 3.7°F-15.7°C -8.9°F-22.7°C 55% 3.0 mph WNW4.8 kmh WNW 8.0 mph12.9 kmh 30.18 in1022.0 mb 0.00 in0.0 mm 0.00 in0.0 mm 0.00 in0.0 mm
03:00 AM 3.6°F-15.8°C -8.6°F-22.6°C 56% Calm Calm 3.0 mph4.8 kmh 30.17 in1021.7 mb 0.00 in0.0 mm 0.00 in0.0 mm 0.00 in0.0 mm
03:04 AM 3.5°F-15.8°C -8.7°F-22.6°C 56% 3.0 mph NW4.8 kmh NW 10.0 mph16.1 kmh 30.17 in1021.7 mb 0.00 in0.0 mm 0.00 in0.0 mm 0.00 in0.0 mm
03:10 AM 3.4°F-15.9°C -8.8°F-22.7°C 56% 6.0 mph SW9.7 kmh SW 6.0 mph9.7 kmh 30.17 in1021.7 mb 0.00 in0.0 mm 0.00 in0.0 mm 0.00 in0.0 mm
03:15 AM 3.4°F-15.9°C -8.4°F-22.4°C 57% 3.0 mph WNW4.8 kmh WNW 4.0 mph6.4 kmh 30.17 in1021.7 mb 0.00 in0.0 mm 0.00 in0.0 mm 0.00 in0.0 mm
03:19 AM 3.3°F-15.9°C -8.5°F-22.5°C 57% 1.0 mph W1.6 kmh W 7.0 mph11.3 kmh 30.17 in1021.7 mb 0.00 in0.0 mm 0.00 in0.0 mm 0.00 in0.0 mm
03:25 AM 3.2°F-16.0°C -8.6°F-22.6°C 57% Calm Calm 5.0 mph8.0 kmh 30.17 in1021.7 mb 0.00 in0.0 mm 0.00 in0.0 mm 0.00 in0.0 mm
03:30 AM 3.2°F-16.0°C -8.2°F-22.3°C 58% 3.0 mph W4.8 kmh W 4.0 mph6.4 kmh 30.17 in1021.7 mb 0.00 in0.0 mm 0.00 in0.0 mm 0.00 in0.0 mm
03:35 AM 3.2°F-16.0°C -7.9°F-22.2°C 59% Calm Calm 6.0 mph9.7 kmh 30.17 in1021.7 mb 0.00 in0.0 mm 0.00 in0.0 mm 0.00 in0.0 mm
03:40 AM 3.2°F-16.0°C -7.9°F-22.2°C 59% 2.0 mph W3.2 kmh W 3.0 mph4.8 kmh 30.17 in1021.7 mb 0.00 in0.0 mm 0.00 in0.0 mm 0.00 in0.0 mm
03:45 AM 3.1°F-16.1°C -7.6°F-22.0°C 60% 3.0 mph SW4.8 kmh SW 7.0 mph11.3 kmh 30.16 in1021.3 mb 0.00 in0.0 mm 0.00 in0.0 mm 0.00 in0.0 mm
03:50 AM 3.2°F-16.0°C -7.5°F-21.9°C 60% 3.0 mph SW4.8 kmh SW 5.0 mph8.0 kmh 30.16 in1021.3 mb 0.00 in0.0 mm 0.00 in0.0 mm 0.00 in0.0 mm
03:55 AM 3.3°F-15.9°C -6.8°F-21.6°C 62% 3.0 mph SW4.8 kmh SW 4.0 mph6.4 kmh 30.17 in1021.7 mb 0.00 in0.0 mm 0.00 in0.0 mm 0.00 in0.0 mm
04:00 AM 3.5°F-15.8°C -5.9°F-21.1°C 64% 4.0 mph WSW6.4 kmh WSW 9.0 mph14.5 kmh 30.16 in1021.3 mb 0.00 in0.0 mm 0.00 in0.0 mm 0.00 in0.0 mm
04:04 AM 3.5°F-15.8°C -6.3°F-21.3°C 63% 9.0 mph WNW14.5 kmh WNW 9.0 mph14.5 kmh 30.16 in1021.3 mb 0.00 in0.0 mm 0.00 in0.0 mm 0.00 in0.0 mm
04:10 AM 3.5°F-15.8°C -6.9°F-21.6°C 61% 3.0 mph W4.8 kmh W 10.0 mph16.1 kmh 30.16 in1021.3 mb 0.00 in0.0 mm 0.00 in0.0 mm 0.00 in0.0 mm
04:15 AM 3.4°F-15.9°C -7.0°F-21.7°C 61% 4.0 mph WNW6.4 kmh WNW 11.0 mph17.7 kmh 30.16 in1021.3 mb 0.00 in0.0 mm 0.00 in0.0 mm 0.00 in0.0 mm
04:20 AM 3.4°F-15.9°C -7.4°F-21.9°C 60% 9.0 mph NW14.5 kmh NW 10.0 mph16.1 kmh 30.16 in1021.3 mb 0.00 in0.0 mm 0.00 in0.0 mm 0.00 in0.0 mm
04:25 AM 3.3°F-15.9°C -7.5°F-21.9°C 60% 5.0 mph WNW8.0 kmh WNW 12.0 mph19.3 kmh 30.16 in1021.3 mb 0.00 in0.0 mm 0.00 in0.0 mm 0.00 in0.0 mm
04:30 AM 3.2°F-16.0°C -7.5°F-21.9°C 60% 2.0 mph W3.2 kmh W 8.0 mph12.9 kmh 30.16 in1021.3 mb 0.00 in0.0 mm 0.00 in0.0 mm 0.00 in0.0 mm
04:35 AM 3.2°F-16.0°C -7.2°F-21.8°C 61% 3.0 mph NW4.8 kmh NW 4.0 mph6.4 kmh 30.15 in1021.0 mb 0.00 in0.0 mm 0.00 in0.0 mm 0.00 in0.0 mm
04:40 AM 3.1°F-16.1°C -7.3°F-21.8°C 61% Calm Calm 7.0 mph11.3 kmh 30.15 in1021.0 mb 0.00 in0.0 mm 0.00 in0.0 mm 0.00 in0.0 mm
04:45 AM 3.1°F-16.1°C -7.0°F-21.7°C 62% 1.0 mph WNW1.6 kmh WNW 7.0 mph11.3 kmh 30.15 in1021.0 mb 0.00 in0.0 mm 0.00 in0.0 mm 0.00 in0.0 mm
04:50 AM 3.1°F-16.1°C -7.0°F-21.7°C 62% 2.0 mph WNW3.2 kmh WNW 6.0 mph9.7 kmh 30.15 in1021.0 mb 0.00 in0.0 mm 0.00 in0.0 mm 0.00 in0.0 mm
04:55 AM 3.1°F-16.1°C -6.6°F-21.4°C 63% 3.0 mph WNW4.8 kmh WNW 8.0 mph12.9 kmh 30.15 in1021.0 mb 0.00 in0.0 mm 0.00 in0.0 mm 0.00 in0.0 mm
05:00 AM 3.1°F-16.1°C -6.3°F-21.3°C 64% 7.0 mph NW11.3 kmh NW 9.0 mph14.5 kmh 30.15 in1021.0 mb 0.00 in0.0 mm 0.00 in0.0 mm 0.00 in0.0 mm
05:05 AM 3.0°F-16.1°C -5.8°F-21.0°C 66% 3.0 mph W4.8 kmh W 7.0 mph11.3 kmh 30.14 in1020.7 mb 0.00 in0.0 mm 0.00 in0.0 mm 0.00 in0.0 mm
05:10 AM 3.1°F-16.1°C -5.1°F-20.6°C 68% 4.0 mph W6.4 kmh W 10.0 mph16.1 kmh 30.14 in1020.7 mb 0.00 in0.0 mm 0.00 in0.0 mm 0.00 in0.0 mm
05:15 AM 3.1°F-16.1°C -4.5°F-20.3°C 70% 2.0 mph W3.2 kmh W 7.0 mph11.3 kmh 30.14 in1020.7 mb 0.00 in0.0 mm 0.00 in0.0 mm 0.00 in0.0 mm
05:20 AM 3.1°F-16.1°C -4.2°F-20.1°C 71% 2.0 mph NW3.2 kmh NW 9.0 mph14.5 kmh 30.14 in1020.7 mb 0.00 in0.0 mm 0.00 in0.0 mm 0.00 in0.0 mm
05:25 AM 3.0°F-16.1°C -4.0°F-20.0°C 72% 1.0 mph WSW1.6 kmh WSW 11.0 mph17.7 kmh 30.14 in1020.7 mb 0.00 in0.0 mm 0.00 in0.0 mm 0.00 in0.0 mm
05:29 AM 3.0°F-16.1°C -4.0°F-20.0°C 72% 9.0 mph W14.5 kmh W 12.0 mph19.3 kmh 30.13 in1020.3 mb 0.00 in0.0 mm 0.00 in0.0 mm 0.00 in0.0 mm
05:35 AM 3.0°F-16.1°C -4.9°F-20.5°C 69% 8.0 mph W12.9 kmh W 9.0 mph14.5 kmh 30.14 in1020.7 mb 0.00 in0.0 mm 0.00 in0.0 mm 0.00 in0.0 mm
05:40 AM 3.0°F-16.1°C -4.3°F-20.2°C 71% 8.0 mph NW12.9 kmh NW 12.0 mph19.3 kmh 30.14 in1020.7 mb 0.00 in0.0 mm 0.00 in0.0 mm 0.00 in0.0 mm
05:45 AM 3.0°F-16.1°C -3.4°F-19.7°C 74% 3.0 mph NNW4.8 kmh NNW 9.0 mph14.5 kmh 30.14 in1020.7 mb 0.00 in0.0 mm 0.00 in0.0 mm 0.00 in0.0 mm
05:50 AM 2.9°F-16.2°C -2.9°F-19.4°C 76% 5.0 mph NW8.0 kmh NW 10.0 mph16.1 kmh 30.14 in1020.7 mb 0.00 in0.0 mm 0.00 in0.0 mm 0.00 in0.0 mm
05:55 AM 2.7°F-16.3°C -3.1°F-19.5°C 76% 7.0 mph NW11.3 kmh NW 9.0 mph14.5 kmh 30.15 in1021.0 mb 0.00 in0.0 mm 0.00 in0.0 mm 0.00 in0.0 mm
06:00 AM 2.4°F-16.4°C -4.0°F-20.0°C 74% 5.0 mph WNW8.0 kmh WNW 8.0 mph12.9 kmh 30.15 in1021.0 mb 0.00 in0.0 mm 0.00 in0.0 mm 0.00 in0.0 mm
06:04 AM 2.2°F-16.6°C -4.5°F-20.3°C 73% 1.0 mph NW1.6 kmh NW 7.0 mph11.3 kmh 30.15 in1021.0 mb 0.00 in0.0 mm 0.00 in0.0 mm 0.00 in0.0 mm
06:10 AM 2.0°F-16.7°C -4.9°F-20.5°C 72% 4.0 mph NW6.4 kmh NW 8.0 mph12.9 kmh 30.15 in1021.0 mb 0.00 in0.0 mm 0.00 in0.0 mm 0.00 in0.0 mm
06:15 AM 1.8°F-16.8°C -4.8°F-20.4°C 73% 8.0 mph WSW12.9 kmh WSW 11.0 mph17.7 kmh 30.15 in1021.0 mb 0.00 in0.0 mm 0.00 in0.0 mm 0.00 in0.0 mm
06:20 AM 1.7°F-16.8°C -4.9°F-20.5°C 73% 9.0 mph W14.5 kmh W 13.0 mph20.9 kmh 30.15 in1021.0 mb 0.00 in0.0 mm 0.00 in0.0 mm 0.00 in0.0 mm
06:25 AM 1.5°F-16.9°C -5.4°F-20.8°C 72% 5.0 mph NW8.0 kmh NW 13.0 mph20.9 kmh 30.16 in1021.3 mb 0.00 in0.0 mm 0.00 in0.0 mm 0.00 in0.0 mm
06:30 AM 1.4°F-17.0°C -5.5°F-20.8°C 72% 4.0 mph WNW6.4 kmh WNW 12.0 mph19.3 kmh 30.16 in1021.3 mb 0.00 in0.0 mm 0.00 in0.0 mm 0.00 in0.0 mm
06:34 AM 1.4°F-17.0°C -5.2°F-20.7°C 73% 9.0 mph NW14.5 kmh NW 10.0 mph16.1 kmh 30.16 in1021.3 mb 0.00 in0.0 mm 0.00 in0.0 mm 0.00 in0.0 mm
06:40 AM 1.1°F-17.2°C -5.2°F-20.7°C 74% 8.0 mph NW12.9 kmh NW 13.0 mph20.9 kmh 30.17 in1021.7 mb 0.00 in0.0 mm 0.00 in0.0 mm 0.00 in0.0 mm
06:45 AM 0.8°F-17.3°C -5.5°F-20.8°C 74% 4.0 mph W6.4 kmh W 11.0 mph17.7 kmh 30.17 in1021.7 mb 0.00 in0.0 mm 0.00 in0.0 mm 0.00 in0.0 mm
06:50 AM 0.6°F-17.4°C -5.7°F-20.9°C 74% 6.0 mph NW9.7 kmh NW 10.0 mph16.1 kmh 30.17 in1021.7 mb 0.00 in0.0 mm 0.00 in0.0 mm 0.00 in0.0 mm
06:55 AM 0.4°F-17.6°C -7.1°F-21.7°C 70% 4.0 mph NW6.4 kmh NW 15.0 mph24.1 kmh 30.18 in1022.0 mb 0.00 in0.0 mm 0.00 in0.0 mm 0.00 in0.0 mm
07:00 AM 0.2°F-17.7°C -8.2°F-22.3°C 67% 10.0 mph NW16.1 kmh NW 14.0 mph22.5 kmh 30.19 in1022.4 mb 0.00 in0.0 mm 0.00 in0.0 mm 0.00 in0.0 mm
07:05 AM 0.2°F-17.7°C -8.5°F-22.5°C 66% 10.0 mph NW16.1 kmh NW 14.0 mph22.5 kmh 30.19 in1022.4 mb 0.00 in0.0 mm 0.00 in0.0 mm 0.00 in0.0 mm
07:10 AM -0.1°F-17.8°C -8.1°F-22.3°C 68% 4.0 mph NW6.4 kmh NW 12.0 mph19.3 kmh 30.19 in1022.4 mb 0.00 in0.0 mm 0.00 in0.0 mm 0.00 in0.0 mm
07:15 AM -0.7°F-18.2°C -7.5°F-21.9°C 72% 5.0 mph N8.0 kmh N 13.0 mph20.9 kmh 30.20 in1022.7 mb 0.00 in0.0 mm 0.00 in0.0 mm 0.00 in0.0 mm
07:19 AM -1.4°F-18.6°C -7.4°F-21.9°C 75% 14.0 mph NW22.5 kmh NW 14.0 mph22.5 kmh 30.21 in1023.0 mb 0.00 in0.0 mm 0.00 in0.0 mm 0.00 in0.0 mm
07:25 AM -1.8°F-18.8°C -7.5°F-21.9°C 76% 9.0 mph NE14.5 kmh NE 15.0 mph24.1 kmh 30.21 in1023.0 mb 0.00 in0.0 mm 0.00 in0.0 mm 0.00 in0.0 mm
07:30 AM -2.1°F-18.9°C -7.5°F-21.9°C 77% 5.0 mph NW8.0 kmh NW 13.0 mph20.9 kmh 30.22 in1023.4 mb 0.00 in0.0 mm 0.00 in0.0 mm 0.00 in0.0 mm
07:35 AM -2.3°F-19.1°C -8.0°F-22.2°C 76% 5.0 mph WNW8.0 kmh WNW 9.0 mph14.5 kmh 30.22 in1023.4 mb 0.00 in0.0 mm 0.00 in0.0 mm 0.00 in0.0 mm
07:40 AM -2.4°F-19.1°C -8.1°F-22.3°C 76% 10.0 mph NW16.1 kmh NW 10.0 mph16.1 kmh 30.23 in1023.7 mb 0.00 in0.0 mm 0.00 in0.0 mm 0.00 in0.0 mm
07:45 AM -2.8°F-19.3°C -8.7°F-22.6°C 75% 9.0 mph NW14.5 kmh NW 13.0 mph20.9 kmh 30.24 in1024.0 mb 0.00 in0.0 mm 0.00 in0.0 mm 0.00 in0.0 mm
07:50 AM -3.2°F-19.6°C -9.7°F-23.2°C 73% 11.0 mph NNW17.7 kmh NNW 13.0 mph20.9 kmh 30.24 in1024.0 mb 0.00 in0.0 mm 0.00 in0.0 mm 0.00 in0.0 mm
07:55 AM -3.4°F-19.7°C -10.2°F-23.4°C 72% 8.0 mph NW12.9 kmh NW 13.0 mph20.9 kmh 30.25 in1024.4 mb 0.00 in0.0 mm 0.00 in0.0 mm 0.00 in0.0 mm
08:00 AM -3.7°F-19.8°C -11.0°F-23.9°C 70% 6.0 mph NW9.7 kmh NW 14.0 mph22.5 kmh 30.25 in1024.4 mb 0.00 in0.0 mm 0.00 in0.0 mm 0.00 in0.0 mm
08:05 AM -4.0°F-20.0°C -12.2°F-24.6°C 67% 13.0 mph W20.9 kmh W 13.0 mph20.9 kmh 30.25 in1024.4 mb 0.00 in0.0 mm 0.00 in0.0 mm 0.00 in0.0 mm
08:10 AM -4.1°F-20.1°C -12.6°F-24.8°C 66% 8.0 mph NW12.9 kmh NW 11.0 mph17.7 kmh 30.26 in1024.7 mb 0.00 in0.0 mm 0.00 in0.0 mm 0.00 in0.0 mm
08:15 AM -4.3°F-20.2°C -13.1°F-25.1°C 65% 3.0 mph NW4.8 kmh NW 12.0 mph19.3 kmh 30.26 in1024.7 mb 0.00 in0.0 mm 0.00 in0.0 mm 0.00 in0.0 mm
08:20 AM -4.2°F-20.1°C -13.0°F-25.0°C 65% 3.0 mph W4.8 kmh W 7.0 mph11.3 kmh 30.27 in1025.1 mb 0.00 in0.0 mm 0.00 in0.0 mm 0.00 in0.0 mm
08:24 AM -4.3°F-20.2°C -13.1°F-25.1°C 65% 13.0 mph NW20.9 kmh NW 15.0 mph24.1 kmh 30.27 in1025.1 mb 0.00 in0.0 mm 0.00 in0.0 mm 0.00 in0.0 mm
08:30 AM -4.6°F-20.3°C -14.3°F-25.7°C 62% 4.0 mph NW6.4 kmh NW 16.0 mph25.7 kmh 30.28 in1025.4 mb 0.00 in0.0 mm 0.00 in0.0 mm 0.00 in0.0 mm
08:35 AM -4.8°F-20.4°C -14.5°F-25.8°C 62% 8.0 mph WNW12.9 kmh WNW 15.0 mph24.1 kmh 30.28 in1025.4 mb 0.00 in0.0 mm 0.00 in0.0 mm 0.00 in0.0 mm
08:40 AM -5.0°F-20.6°C -14.7°F-25.9°C 62% 9.0 mph NW14.5 kmh NW 12.0 mph19.3 kmh 30.28 in1025.4 mb 0.00 in0.0 mm 0.00 in0.0 mm 0.00 in0.0 mm
08:45 AM -5.4°F-20.8°C -15.1°F-26.2°C 62% 9.0 mph NNW14.5 kmh NNW 10.0 mph16.1 kmh 30.29 in1025.7 mb 0.00 in0.0 mm 0.00 in0.0 mm 0.00 in0.0 mm
08:50 AM -5.6°F-20.9°C -15.2°F-26.2°C 62% 4.0 mph NNW6.4 kmh NNW 15.0 mph24.1 kmh 30.30 in1026.1 mb 0.00 in0.0 mm 0.00 in0.0 mm 0.00 in0.0 mm
08:55 AM -6.0°F-21.1°C -16.3°F-26.8°C 60% 8.0 mph WSW12.9 kmh WSW 12.0 mph19.3 kmh 30.30 in1026.1 mb 0.00 in0.0 mm 0.00 in0.0 mm 0.00 in0.0 mm
09:00 AM -6.3°F-21.3°C -16.9°F-27.2°C 59% 9.0 mph WSW14.5 kmh WSW 11.0 mph17.7 kmh 30.31 in1026.4 mb 0.00 in0.0 mm 0.00 in0.0 mm 0.00 in0.0 mm
09:05 AM -6.5°F-21.4°C -17.1°F-27.3°C 59% 7.0 mph NW11.3 kmh NW 13.0 mph20.9 kmh 30.32 in1026.8 mb 0.00 in0.0 mm 0.00 in0.0 mm 0.00 in0.0 mm
09:10 AM -7.0°F-21.7°C -17.9°F-27.7°C 58% 4.0 mph NW6.4 kmh NW 12.0 mph19.3 kmh 30.32 in1026.8 mb 0.00 in0.0 mm 0.00 in0.0 mm 0.00 in0.0 mm
09:14 AM -7.3°F-21.8°C -17.8°F-27.7°C 59% 8.0 mph WNW12.9 kmh WNW 13.0 mph20.9 kmh 30.33 in1027.1 mb 0.00 in0.0 mm 0.00 in0.0 mm 0.00 in0.0 mm
09:20 AM -7.6°F-22.0°C -18.8°F-28.2°C 57% 2.0 mph SW3.2 kmh SW 12.0 mph19.3 kmh 30.33 in1027.1 mb 0.00 in0.0 mm 0.00 in0.0 mm 0.00 in0.0 mm
09:25 AM -7.8°F-22.1°C -19.0°F-28.3°C 57% 7.0 mph W11.3 kmh W 12.0 mph19.3 kmh 30.34 in1027.4 mb 0.00 in0.0 mm 0.00 in0.0 mm 0.00 in0.0 mm
09:30 AM -7.9°F-22.2°C -19.4°F-28.6°C 56% 8.0 mph NNW12.9 kmh NNW 10.0 mph16.1 kmh 30.34 in1027.4 mb 0.00 in0.0 mm 0.00 in0.0 mm 0.00 in0.0 mm
09:34 AM -8.0°F-22.2°C -19.5°F-28.6°C 56% 6.0 mph NW9.7 kmh NW 11.0 mph17.7 kmh 30.35 in1027.8 mb 0.00 in0.0 mm 0.00 in0.0 mm 0.00 in0.0 mm
09:40 AM -8.0°F-22.2°C -19.5°F-28.6°C 56% 10.0 mph NW16.1 kmh NW 15.0 mph24.1 kmh 30.35 in1027.8 mb 0.00 in0.0 mm 0.00 in0.0 mm 0.00 in0.0 mm
09:45 AM -8.0°F-22.2°C -19.5°F-28.6°C 56% 5.0 mph NW8.0 kmh NW 9.0 mph14.5 kmh 30.36 in1028.1 mb 0.00 in0.0 mm 0.00 in0.0 mm 0.00 in0.0 mm
09:50 AM -8.0°F-22.2°C -19.2°F-28.4°C 57% 10.0 mph NW16.1 kmh NW 11.0 mph17.7 kmh 30.36 in1028.1 mb 0.00 in0.0 mm 0.00 in0.0 mm 0.00 in0.0 mm
09:54 AM -8.1°F-22.3°C -19.6°F-28.7°C 56% 8.0 mph W12.9 kmh W 12.0 mph19.3 kmh 30.37 in1028.4 mb 0.00 in0.0 mm 0.00 in0.0 mm 0.00 in0.0 mm
10:00 AM -8.0°F-22.2°C -19.2°F-28.4°C 57% 4.0 mph WNW6.4 kmh WNW 9.0 mph14.5 kmh 30.37 in1028.4 mb 0.00 in0.0 mm 0.00 in0.0 mm 0.00 in0.0 mm
10:05 AM -7.9°F-22.2°C -19.1°F-28.4°C 57% 6.0 mph NW9.7 kmh NW 11.0 mph17.7 kmh 30.37 in1028.4 mb 0.00 in0.0 mm 0.00 in0.0 mm 0.00 in0.0 mm
10:09 AM -7.8°F-22.1°C -19.0°F-28.3°C 57% 7.0 mph WSW11.3 kmh WSW 8.0 mph12.9 kmh 30.37 in1028.4 mb 0.00 in0.0 mm 0.00 in0.0 mm 0.00 in0.0 mm
10:15 AM -7.8°F-22.1°C -18.6°F-28.1°C 58% 9.0 mph NW14.5 kmh NW 11.0 mph17.7 kmh 30.37 in1028.4 mb 0.00 in0.0 mm 0.00 in0.0 mm 0.00 in0.0 mm
10:20 AM -7.9°F-22.2°C -19.1°F-28.4°C 57% 7.0 mph NW11.3 kmh NW 11.0 mph17.7 kmh 30.38 in1028.8 mb 0.00 in0.0 mm 0.00 in0.0 mm 0.00 in0.0 mm
10:25 AM -7.9°F-22.2°C -18.7°F-28.2°C 58% 5.0 mph NW8.0 kmh NW 11.0 mph17.7 kmh 30.38 in1028.8 mb 0.00 in0.0 mm 0.00 in0.0 mm 0.00 in0.0 mm
10:29 AM -7.7°F-22.1°C -18.5°F-28.1°C 58% 5.0 mph NW8.0 kmh NW 7.0 mph11.3 kmh 30.38 in1028.8 mb 0.00 in0.0 mm 0.00 in0.0 mm 0.00 in0.0 mm
10:35 AM -7.5°F-21.9°C -18.0°F-27.8°C 59% 4.0 mph W6.4 kmh W 10.0 mph16.1 kmh 30.39 in1029.1 mb 0.00 in0.0 mm 0.00 in0.0 mm 0.00 in0.0 mm
10:40 AM -7.2°F-21.8°C -17.4°F-27.4°C 60% 1.0 mph NW1.6 kmh NW 6.0 mph9.7 kmh 30.39 in1029.1 mb 0.00 in0.0 mm 0.00 in0.0 mm 0.00 in0.0 mm
10:45 AM -7.0°F-21.7°C -17.2°F-27.3°C 60% 6.0 mph N9.7 kmh N 7.0 mph11.3 kmh 30.39 in1029.1 mb 0.00 in0.0 mm 0.00 in0.0 mm 0.00 in0.0 mm
10:50 AM -6.7°F-21.5°C -16.9°F-27.2°C 60% 3.0 mph WNW4.8 kmh WNW 5.0 mph8.0 kmh 30.39 in1029.1 mb 0.00 in0.0 mm 0.00 in0.0 mm 0.00 in0.0 mm
10:55 AM -6.4°F-21.3°C -16.7°F-27.1°C 60% 9.0 mph SW14.5 kmh SW 9.0 mph14.5 kmh 30.39 in1029.1 mb 0.00 in0.0 mm 0.00 in0.0 mm 0.00 in0.0 mm
11:00 AM -7.0°F-21.7°C -17.5°F-27.5°C 59% 7.0 mph NW11.3 kmh NW 13.0 mph20.9 kmh 30.40 in1029.5 mb 0.00 in0.0 mm 0.00 in0.0 mm 0.00 in0.0 mm
11:05 AM -6.8°F-21.6°C -17.7°F-27.6°C 58% 7.0 mph WNW11.3 kmh WNW 13.0 mph20.9 kmh 30.40 in1029.5 mb 0.00 in0.0 mm 0.00 in0.0 mm 0.00 in0.0 mm
11:10 AM -6.9°F-21.6°C -18.5°F-28.1°C 56% 3.0 mph NW4.8 kmh NW 13.0 mph20.9 kmh 30.40 in1029.5 mb 0.00 in0.0 mm 0.00 in0.0 mm 0.00 in0.0 mm
11:15 AM -6.7°F-21.5°C -18.3°F-27.9°C 56% 4.0 mph W6.4 kmh W 14.0 mph22.5 kmh 30.41 in1029.8 mb 0.00 in0.0 mm 0.00 in0.0 mm 0.00 in0.0 mm
11:20 AM -6.8°F-21.6°C -19.1°F-28.4°C 54% 4.0 mph WNW6.4 kmh WNW 12.0 mph19.3 kmh 30.41 in1029.8 mb 0.00 in0.0 mm 0.00 in0.0 mm 0.00 in0.0 mm
11:25 AM -6.6°F-21.4°C -18.5°F-28.1°C 55% 6.0 mph W9.7 kmh W 12.0 mph19.3 kmh 30.41 in1029.8 mb 0.00 in0.0 mm 0.00 in0.0 mm 0.00 in0.0 mm
11:30 AM -6.4°F-21.3°C -18.3°F-27.9°C 55% 10.0 mph SW16.1 kmh SW 10.0 mph16.1 kmh 30.42 in1030.1 mb 0.00 in0.0 mm 0.00 in0.0 mm 0.00 in0.0 mm
11:35 AM -5.8°F-21.0°C -17.4°F-27.4°C 56% 7.0 mph NW11.3 kmh NW 11.0 mph17.7 kmh 30.42 in1030.1 mb 0.00 in0.0 mm 0.00 in0.0 mm 0.00 in0.0 mm
11:40 AM -5.7°F-20.9°C -17.7°F-27.6°C 55% 3.0 mph WNW4.8 kmh WNW 12.0 mph19.3 kmh 30.42 in1030.1 mb 0.00 in0.0 mm 0.00 in0.0 mm 0.00 in0.0 mm
11:45 AM -5.8°F-21.0°C -17.8°F-27.7°C 55% 8.0 mph WSW12.9 kmh WSW 14.0 mph22.5 kmh 30.43 in1030.5 mb 0.00 in0.0 mm 0.00 in0.0 mm 0.00 in0.0 mm
11:50 AM -5.5°F-20.8°C -17.5°F-27.5°C 55% 7.0 mph SW11.3 kmh SW 10.0 mph16.1 kmh 30.43 in1030.5 mb 0.00 in0.0 mm 0.00 in0.0 mm 0.00 in0.0 mm
11:55 AM -5.7°F-20.9°C -18.0°F-27.8°C 54% 10.0 mph W16.1 kmh W 12.0 mph19.3 kmh 30.44 in1030.8 mb 0.00 in0.0 mm 0.00 in0.0 mm 0.00 in0.0 mm
12:00 PM -5.8°F-21.0°C -18.5°F-28.1°C 53% 7.0 mph WSW11.3 kmh WSW 11.0 mph17.7 kmh 30.44 in1030.8 mb 0.00 in0.0 mm 0.00 in0.0 mm 0.00 in0.0 mm
12:05 PM -5.7°F-20.9°C -18.4°F-28.0°C 53% 6.0 mph W9.7 kmh W 9.0 mph14.5 kmh 30.44 in1030.8 mb 0.00 in0.0 mm 0.00 in0.0 mm 0.00 in0.0 mm
12:09 PM -5.5°F-20.8°C -18.2°F-27.9°C 53% 4.0 mph NW6.4 kmh NW 10.0 mph16.1 kmh 30.44 in1030.8 mb 0.00 in0.0 mm 0.00 in0.0 mm 0.00 in0.0 mm
12:14 PM -5.4°F-20.8°C -18.1°F-27.8°C 53% 6.0 mph WSW9.7 kmh WSW 11.0 mph17.7 kmh 30.44 in1030.8 mb 0.00 in0.0 mm 0.00 in0.0 mm 0.00 in0.0 mm
12:20 PM -5.0°F-20.6°C -17.7°F-27.6°C 53% 4.0 mph W6.4 kmh W 11.0 mph17.7 kmh 30.44 in1030.8 mb 0.00 in0.0 mm 0.00 in0.0 mm 0.00 in0.0 mm
12:24 PM -4.9°F-20.5°C -17.3°F-27.4°C 54% 8.0 mph NW12.9 kmh NW 11.0 mph17.7 kmh 30.44 in1030.8 mb 0.00 in0.0 mm 0.00 in0.0 mm 0.00 in0.0 mm
12:30 PM -4.7°F-20.4°C -17.1°F-27.3°C 54% 5.0 mph NW8.0 kmh NW 9.0 mph14.5 kmh 30.45 in1031.2 mb 0.00 in0.0 mm 0.00 in0.0 mm 0.00 in0.0 mm
12:35 PM -4.7°F-20.4°C -17.1°F-27.3°C 54% 6.0 mph W9.7 kmh W 11.0 mph17.7 kmh 30.44 in1030.8 mb 0.00 in0.0 mm 0.00 in0.0 mm 0.00 in0.0 mm
12:40 PM -4.3°F-20.2°C -16.4°F-26.9°C 55% 5.0 mph SSW8.0 kmh SSW 10.0 mph16.1 kmh 30.45 in1031.2 mb 0.00 in0.0 mm 0.00 in0.0 mm 0.00 in0.0 mm
12:44 PM -3.7°F-19.8°C -15.5°F-26.4°C 56% 6.0 mph W9.7 kmh W 8.0 mph12.9 kmh 30.45 in1031.2 mb 0.00 in0.0 mm 0.00 in0.0 mm 0.00 in0.0 mm
12:50 PM -3.8°F-19.9°C -16.3°F-26.8°C 54% 9.0 mph SSW14.5 kmh SSW 12.0 mph19.3 kmh 30.45 in1031.2 mb 0.00 in0.0 mm 0.00 in0.0 mm 0.00 in0.0 mm
12:55 PM -3.4°F-19.7°C -14.8°F-26.0°C 57% 5.0 mph SW8.0 kmh SW 9.0 mph14.5 kmh 30.44 in1030.8 mb 0.00 in0.0 mm 0.00 in0.0 mm 0.00 in0.0 mm
01:00 PM -3.1°F-19.5°C -14.9°F-26.1°C 56% 7.0 mph SW11.3 kmh SW 12.0 mph19.3 kmh 30.45 in1031.2 mb 0.00 in0.0 mm 0.00 in0.0 mm 0.00 in0.0 mm
01:05 PM -3.0°F-19.4°C -14.8°F-26.0°C 56% 9.0 mph WSW14.5 kmh WSW 10.0 mph16.1 kmh 30.45 in1031.2 mb 0.00 in0.0 mm 0.00 in0.0 mm 0.00 in0.0 mm
01:10 PM -2.8°F-19.3°C -14.3°F-25.7°C 57% 4.0 mph WSW6.4 kmh WSW 10.0 mph16.1 kmh 30.45 in1031.2 mb 0.00 in0.0 mm 0.00 in0.0 mm 0.00 in0.0 mm
01:15 PM -2.4°F-19.1°C -13.2°F-25.1°C 59% 8.0 mph SW12.9 kmh SW 10.0 mph16.1 kmh 30.45 in1031.2 mb 0.00 in0.0 mm 0.00 in0.0 mm 0.00 in0.0 mm
01:20 PM -2.4°F-19.1°C -13.5°F-25.3°C 58% 7.0 mph NW11.3 kmh NW 8.0 mph12.9 kmh 30.44 in1030.8 mb 0.00 in0.0 mm 0.00 in0.0 mm 0.00 in0.0 mm
01:24 PM -3.1°F-19.5°C -14.9°F-26.1°C 56% 9.0 mph SW14.5 kmh SW 13.0 mph20.9 kmh 30.44 in1030.8 mb 0.00 in0.0 mm 0.00 in0.0 mm 0.00 in0.0 mm
01:30 PM -3.4°F-19.7°C -14.8°F-26.0°C 57% 8.0 mph SW12.9 kmh SW 15.0 mph24.1 kmh 30.44 in1030.8 mb 0.00 in0.0 mm 0.00 in0.0 mm 0.00 in0.0 mm
01:35 PM -3.2°F-19.6°C -14.6°F-25.9°C 57% 2.0 mph WSW3.2 kmh WSW 14.0 mph22.5 kmh 30.45 in1031.2 mb 0.00 in0.0 mm 0.00 in0.0 mm 0.00 in0.0 mm
01:40 PM -3.0°F-19.4°C -14.4°F-25.8°C 57% 4.0 mph NW6.4 kmh NW 10.0 mph16.1 kmh 30.44 in1030.8 mb 0.00 in0.0 mm 0.00 in0.0 mm 0.00 in0.0 mm
01:45 PM -2.0°F-18.9°C -13.2°F-25.1°C 58% 7.0 mph WNW11.3 kmh WNW 11.0 mph17.7 kmh 30.44 in1030.8 mb 0.00 in0.0 mm 0.00 in0.0 mm 0.00 in0.0 mm
01:49 PM -1.6°F-18.7°C -13.1°F-25.1°C 57% 4.0 mph WSW6.4 kmh WSW 9.0 mph14.5 kmh 30.44 in1030.8 mb 0.00 in0.0 mm 0.00 in0.0 mm 0.00 in0.0 mm
01:55 PM -1.4°F-18.6°C -12.9°F-24.9°C 57% 5.0 mph NW8.0 kmh NW 8.0 mph12.9 kmh 30.44 in1030.8 mb 0.00 in0.0 mm 0.00 in0.0 mm 0.00 in0.0 mm
01:59 PM -1.6°F-18.7°C -13.5°F-25.3°C 56% 6.0 mph W9.7 kmh W 11.0 mph17.7 kmh 30.44 in1030.8 mb 0.00 in0.0 mm 0.00 in0.0 mm 0.00 in0.0 mm
02:05 PM -2.0°F-18.9°C -13.8°F-25.4°C 56% 11.0 mph WSW17.7 kmh WSW 14.0 mph22.5 kmh 30.45 in1031.2 mb 0.00 in0.0 mm 0.00 in0.0 mm 0.00 in0.0 mm
02:10 PM -2.5°F-19.2°C -14.3°F-25.7°C 56% 8.0 mph WNW12.9 kmh WNW 17.0 mph27.4 kmh 30.44 in1030.8 mb 0.00 in0.0 mm 0.00 in0.0 mm 0.00 in0.0 mm
02:15 PM -1.8°F-18.8°C -13.3°F-25.2°C 57% 2.0 mph WSW3.2 kmh WSW 13.0 mph20.9 kmh 30.45 in1031.2 mb 0.00 in0.0 mm 0.00 in0.0 mm 0.00 in0.0 mm
02:20 PM -0.8°F-18.2°C -12.0°F-24.4°C 58% 4.0 mph SW6.4 kmh SW 9.0 mph14.5 kmh 30.44 in1030.8 mb 0.00 in0.0 mm 0.00 in0.0 mm 0.00 in0.0 mm
02:24 PM -0.7°F-18.2°C -12.3°F-24.6°C 57% 5.0 mph WNW8.0 kmh WNW 9.0 mph14.5 kmh 30.44 in1030.8 mb 0.00 in0.0 mm 0.00 in0.0 mm 0.00 in0.0 mm
02:30 PM -0.6°F-18.1°C -12.2°F-24.6°C 57% 4.0 mph WNW6.4 kmh WNW 12.0 mph19.3 kmh 30.45 in1031.2 mb 0.00 in0.0 mm 0.00 in0.0 mm 0.00 in0.0 mm
02:35 PM -0.5°F-18.1°C -11.7°F-24.3°C 58% 11.0 mph NW17.7 kmh NW 11.0 mph17.7 kmh 30.45 in1031.2 mb 0.00 in0.0 mm 0.00 in0.0 mm 0.00 in0.0 mm
02:40 PM -0.9°F-18.3°C -12.8°F-24.9°C 56% 5.0 mph WSW8.0 kmh WSW 12.0 mph19.3 kmh 30.44 in1030.8 mb 0.00 in0.0 mm 0.00 in0.0 mm 0.00 in0.0 mm
02:45 PM -0.1°F-17.8°C -11.4°F-24.1°C 58% 10.0 mph NW16.1 kmh NW 10.0 mph16.1 kmh 30.44 in1030.8 mb 0.00 in0.0 mm 0.00 in0.0 mm 0.00 in0.0 mm
02:50 PM 0.1°F-17.7°C -12.0°F-24.4°C 56% 13.0 mph SW20.9 kmh SW 16.0 mph25.7 kmh 30.44 in1030.8 mb 0.00 in0.0 mm 0.00 in0.0 mm 0.00 in0.0 mm
02:55 PM -0.2°F-17.9°C -12.2°F-24.6°C 56% 7.0 mph W11.3 kmh W 7.0 mph11.3 kmh 30.44 in1030.8 mb 0.00 in0.0 mm 0.00 in0.0 mm 0.00 in0.0 mm
03:00 PM 0.1°F-17.7°C -11.6°F-24.2°C 57% 7.0 mph WSW11.3 kmh WSW 10.0 mph16.1 kmh 30.45 in1031.2 mb 0.00 in0.0 mm 0.00 in0.0 mm 0.00 in0.0 mm
03:05 PM 0.4°F-17.6°C -11.2°F-24.0°C 57% 6.0 mph SW9.7 kmh SW 11.0 mph17.7 kmh 30.44 in1030.8 mb 0.00 in0.0 mm 0.00 in0.0 mm 0.00 in0.0 mm
03:10 PM 0.4°F-17.6°C -11.2°F-24.0°C 57% 5.0 mph WSW8.0 kmh WSW 13.0 mph20.9 kmh 30.44 in1030.8 mb 0.00 in0.0 mm 0.00 in0.0 mm 0.00 in0.0 mm
03:15 PM 0.7°F-17.4°C -10.3°F-23.5°C 59% 10.0 mph SW16.1 kmh SW 12.0 mph19.3 kmh 30.44 in1030.8 mb 0.00 in0.0 mm 0.00 in0.0 mm 0.00 in0.0 mm
03:20 PM 0.5°F-17.5°C -10.4°F-23.6°C 59% 3.0 mph SW4.8 kmh SW 19.0 mph30.6 kmh 30.44 in1030.8 mb 0.00 in0.0 mm 0.00 in0.0 mm 0.00 in0.0 mm
03:25 PM 1.0°F-17.2°C -9.6°F-23.1°C 60% 9.0 mph WSW14.5 kmh WSW 13.0 mph20.9 kmh 30.44 in1030.8 mb 0.00 in0.0 mm 0.00 in0.0 mm 0.00 in0.0 mm
03:30 PM 1.0°F-17.2°C -10.0°F-23.3°C 59% 7.0 mph WSW11.3 kmh WSW 13.0 mph20.9 kmh 30.44 in1030.8 mb 0.00 in0.0 mm 0.00 in0.0 mm 0.00 in0.0 mm
03:35 PM 1.4°F-17.0°C -9.3°F-22.9°C 60% 6.0 mph W9.7 kmh W 11.0 mph17.7 kmh 30.44 in1030.8 mb 0.00 in0.0 mm 0.00 in0.0 mm 0.00 in0.0 mm
03:40 PM 1.4°F-17.0°C -9.9°F-23.3°C 58% 4.0 mph SW6.4 kmh SW 10.0 mph16.1 kmh 30.44 in1030.8 mb 0.00 in0.0 mm 0.00 in0.0 mm 0.00 in0.0 mm
03:45 PM 2.3°F-16.5°C -7.7°F-22.1°C 62% 10.0 mph NW16.1 kmh NW 10.0 mph16.1 kmh 30.44 in1030.8 mb 0.00 in0.0 mm 0.00 in0.0 mm 0.00 in0.0 mm
03:50 PM 2.5°F-16.4°C -8.6°F-22.6°C 59% 4.0 mph W6.4 kmh W 10.0 mph16.1 kmh 30.44 in1030.8 mb 0.00 in0.0 mm 0.00 in0.0 mm 0.00 in0.0 mm
03:55 PM 2.2°F-16.6°C -9.2°F-22.9°C 58% 7.0 mph SW11.3 kmh SW 16.0 mph25.7 kmh 30.43 in1030.5 mb 0.00 in0.0 mm 0.00 in0.0 mm 0.00 in0.0 mm
03:59 PM 1.9°F-16.7°C -9.5°F-23.1°C 58% 10.0 mph SW16.1 kmh SW 15.0 mph24.1 kmh 30.43 in1030.5 mb 0.00 in0.0 mm 0.00 in0.0 mm 0.00 in0.0 mm
04:04 PM 2.0°F-16.7°C -9.0°F-22.8°C 59% 5.0 mph WSW8.0 kmh WSW 13.0 mph20.9 kmh 30.43 in1030.5 mb 0.00 in0.0 mm 0.00 in0.0 mm 0.00 in0.0 mm
04:10 PM 1.8°F-16.8°C -9.2°F-22.9°C 59% 5.0 mph SW8.0 kmh SW 15.0 mph24.1 kmh 30.43 in1030.5 mb 0.00 in0.0 mm 0.00 in0.0 mm 0.00 in0.0 mm
04:15 PM 2.2°F-16.6°C -8.8°F-22.7°C 59% 7.0 mph SW11.3 kmh SW 7.0 mph11.3 kmh 30.43 in1030.5 mb 0.00 in0.0 mm 0.00 in0.0 mm 0.00 in0.0 mm
04:20 PM 2.6°F-16.3°C -8.5°F-22.5°C 59% 7.0 mph SW11.3 kmh SW 13.0 mph20.9 kmh 30.43 in1030.5 mb 0.00 in0.0 mm 0.00 in0.0 mm 0.00 in0.0 mm
04:25 PM 2.7°F-16.3°C -9.1°F-22.8°C 57% 9.0 mph SW14.5 kmh SW 12.0 mph19.3 kmh 30.43 in1030.5 mb 0.00 in0.0 mm 0.00 in0.0 mm 0.00 in0.0 mm
04:30 PM 2.6°F-16.3°C -9.2°F-22.9°C 57% 4.0 mph W6.4 kmh W 10.0 mph16.1 kmh 30.43 in1030.5 mb 0.00 in0.0 mm 0.00 in0.0 mm 0.00 in0.0 mm
04:34 PM 2.9°F-16.2°C -8.9°F-22.7°C 57% 4.0 mph W6.4 kmh W 10.0 mph16.1 kmh 30.43 in1030.5 mb 0.00 in0.0 mm 0.00 in0.0 mm 0.00 in0.0 mm
04:40 PM 3.6°F-15.8°C -7.9°F-22.2°C 58% 11.0 mph SW17.7 kmh SW 13.0 mph20.9 kmh 30.43 in1030.5 mb 0.00 in0.0 mm 0.00 in0.0 mm 0.00 in0.0 mm
04:45 PM 3.4°F-15.9°C -8.4°F-22.4°C 57% 4.0 mph W6.4 kmh W 10.0 mph16.1 kmh 30.43 in1030.5 mb 0.00 in0.0 mm 0.00 in0.0 mm 0.00 in0.0 mm
04:50 PM 3.7°F-15.7°C -8.5°F-22.5°C 56% 10.0 mph SW16.1 kmh SW 10.0 mph16.1 kmh 30.43 in1030.5 mb 0.00 in0.0 mm 0.00 in0.0 mm 0.00 in0.0 mm
04:55 PM 3.6°F-15.8°C -8.9°F-22.7°C 55% 4.0 mph SW6.4 kmh SW 10.0 mph16.1 kmh 30.43 in1030.5 mb 0.00 in0.0 mm 0.00 in0.0 mm 0.00 in0.0 mm
05:00 PM 3.9°F-15.6°C -8.3°F-22.4°C 56% 3.0 mph SW4.8 kmh SW 10.0 mph16.1 kmh 30.43 in1030.5 mb 0.00 in0.0 mm 0.00 in0.0 mm 0.00 in0.0 mm
05:04 PM 4.3°F-15.4°C -7.6°F-22.0°C 57% 12.0 mph WNW19.3 kmh WNW 12.0 mph19.3 kmh 30.43 in1030.5 mb 0.00 in0.0 mm 0.00 in0.0 mm 0.00 in0.0 mm
05:10 PM 4.4°F-15.3°C -7.8°F-22.1°C 56% 4.0 mph W6.4 kmh W 9.0 mph14.5 kmh 30.43 in1030.5 mb 0.00 in0.0 mm 0.00 in0.0 mm 0.00 in0.0 mm
05:14 PM 4.1°F-15.5°C -8.8°F-22.7°C 54% 9.0 mph SW14.5 kmh SW 12.0 mph19.3 kmh 30.43 in1030.5 mb 0.00 in0.0 mm 0.00 in0.0 mm 0.00 in0.0 mm
05:20 PM 4.0°F-15.6°C -8.6°F-22.6°C 55% 3.0 mph W4.8 kmh W 10.0 mph16.1 kmh 30.43 in1030.5 mb 0.00 in0.0 mm 0.00 in0.0 mm 0.00 in0.0 mm
05:24 PM 3.9°F-15.6°C -9.0°F-22.8°C 54% 4.0 mph W6.4 kmh W 14.0 mph22.5 kmh 30.43 in1030.5 mb 0.00 in0.0 mm 0.00 in0.0 mm 0.00 in0.0 mm
05:30 PM 4.0°F-15.6°C -8.6°F-22.6°C 55% 6.0 mph WSW9.7 kmh WSW 11.0 mph17.7 kmh 30.43 in1030.5 mb 0.00 in0.0 mm 0.00 in0.0 mm 0.00 in0.0 mm
05:35 PM 4.1°F-15.5°C -8.8°F-22.7°C 54% 6.0 mph W9.7 kmh W 8.0 mph12.9 kmh 30.43 in1030.5 mb 0.00 in0.0 mm 0.00 in0.0 mm 0.00 in0.0 mm
05:40 PM 4.4°F-15.3°C -8.2°F-22.3°C 55% 3.0 mph WSW4.8 kmh WSW 11.0 mph17.7 kmh 30.43 in1030.5 mb 0.00 in0.0 mm 0.00 in0.0 mm 0.00 in0.0 mm
05:45 PM 4.8°F-15.1°C -7.8°F-22.1°C 55% 7.0 mph WSW11.3 kmh WSW 7.0 mph11.3 kmh 30.43 in1030.5 mb 0.00 in0.0 mm 0.00 in0.0 mm 0.00 in0.0 mm
05:49 PM 4.9°F-15.1°C -8.1°F-22.3°C 54% 8.0 mph W12.9 kmh W 10.0 mph16.1 kmh 30.43 in1030.5 mb 0.00 in0.0 mm 0.00 in0.0 mm 0.00 in0.0 mm
05:55 PM 4.4°F-15.3°C -8.9°F-22.7°C 53% 5.0 mph SW8.0 kmh SW 9.0 mph14.5 kmh 30.44 in1030.8 mb 0.00 in0.0 mm 0.00 in0.0 mm 0.00 in0.0 mm
06:00 PM 4.2°F-15.4°C -8.4°F-22.4°C 55% 7.0 mph SW11.3 kmh SW 8.0 mph12.9 kmh 30.43 in1030.5 mb 0.00 in0.0 mm 0.00 in0.0 mm 0.00 in0.0 mm
06:05 PM 3.7°F-15.7°C -8.9°F-22.7°C 55% 10.0 mph SW16.1 kmh SW 16.0 mph25.7 kmh 30.44 in1030.8 mb 0.00 in0.0 mm 0.00 in0.0 mm 0.00 in0.0 mm
06:10 PM 3.5°F-15.8°C -9.0°F-22.8°C 55% 7.0 mph SW11.3 kmh SW 11.0 mph17.7 kmh 30.44 in1030.8 mb 0.00 in0.0 mm 0.00 in0.0 mm 0.00 in0.0 mm
06:14 PM 3.7°F-15.7°C -8.9°F-22.7°C 55% 5.0 mph WNW8.0 kmh WNW 9.0 mph14.5 kmh 30.44 in1030.8 mb 0.00 in0.0 mm 0.00 in0.0 mm 0.00 in0.0 mm
06:20 PM 3.9°F-15.6°C -8.7°F-22.6°C 55% 2.0 mph WSW3.2 kmh WSW 7.0 mph11.3 kmh 30.44 in1030.8 mb 0.00 in0.0 mm 0.00 in0.0 mm 0.00 in0.0 mm
06:25 PM 4.1°F-15.5°C -8.5°F-22.5°C 55% 4.0 mph W6.4 kmh W 8.0 mph12.9 kmh 30.44 in1030.8 mb 0.00 in0.0 mm 0.00 in0.0 mm 0.00 in0.0 mm
06:30 PM 3.9°F-15.6°C -8.7°F-22.6°C 55% 8.0 mph SW12.9 kmh SW 11.0 mph17.7 kmh 30.44 in1030.8 mb 0.00 in0.0 mm 0.00 in0.0 mm 0.00 in0.0 mm
06:35 PM 3.6°F-15.8°C -8.6°F-22.6°C 56% 7.0 mph SW11.3 kmh SW 10.0 mph16.1 kmh 30.44 in1030.8 mb 0.00 in0.0 mm 0.00 in0.0 mm 0.00 in0.0 mm
06:40 PM 3.3°F-15.9°C -8.9°F-22.7°C 56% 2.0 mph WSW3.2 kmh WSW 14.0 mph22.5 kmh 30.44 in1030.8 mb 0.00 in0.0 mm 0.00 in0.0 mm 0.00 in0.0 mm
06:45 PM 3.3°F-15.9°C -8.9°F-22.7°C 56% 9.0 mph SW14.5 kmh SW 10.0 mph16.1 kmh 30.45 in1031.2 mb 0.00 in0.0 mm 0.00 in0.0 mm 0.00 in0.0 mm
06:50 PM 3.1°F-16.1°C -9.0°F-22.8°C 56% 3.0 mph WNW4.8 kmh WNW 7.0 mph11.3 kmh 30.45 in1031.2 mb 0.00 in0.0 mm 0.00 in0.0 mm 0.00 in0.0 mm
07:00 PM 2.7°F-16.3°C -9.1°F-22.8°C 57% 6.0 mph WNW9.7 kmh WNW 7.0 mph11.3 kmh 30.44 in1030.8 mb 0.00 in0.0 mm 0.00 in0.0 mm 0.00 in0.0 mm
07:05 PM 2.6°F-16.3°C -8.8°F-22.7°C 58% 2.0 mph W3.2 kmh W 6.0 mph9.7 kmh 30.45 in1031.2 mb 0.00 in0.0 mm 0.00 in0.0 mm 0.00 in0.0 mm
07:10 PM 2.5°F-16.4°C -8.9°F-22.7°C 58% 7.0 mph W11.3 kmh W 7.0 mph11.3 kmh 30.45 in1031.2 mb 0.00 in0.0 mm 0.00 in0.0 mm 0.00 in0.0 mm
07:15 PM 2.4°F-16.4°C -9.0°F-22.8°C 58% 3.0 mph WNW4.8 kmh WNW 9.0 mph14.5 kmh 30.45 in1031.2 mb 0.00 in0.0 mm 0.00 in0.0 mm 0.00 in0.0 mm
07:20 PM 2.3°F-16.5°C -8.7°F-22.6°C 59% 2.0 mph SW3.2 kmh SW 7.0 mph11.3 kmh 30.45 in1031.2 mb 0.00 in0.0 mm 0.00 in0.0 mm 0.00 in0.0 mm
07:25 PM 2.4°F-16.4°C -8.0°F-22.2°C 61% Calm Calm 7.0 mph11.3 kmh 30.45 in1031.2 mb 0.00 in0.0 mm 0.00 in0.0 mm 0.00 in0.0 mm
07:29 PM 2.3°F-16.5°C -7.7°F-22.1°C 62% 2.0 mph SW3.2 kmh SW 5.0 mph8.0 kmh 30.45 in1031.2 mb 0.00 in0.0 mm 0.00 in0.0 mm 0.00 in0.0 mm
07:35 PM 2.2°F-16.6°C -8.2°F-22.3°C 61% 3.0 mph WNW4.8 kmh WNW 6.0 mph9.7 kmh 30.44 in1030.8 mb 0.00 in0.0 mm 0.00 in0.0 mm 0.00 in0.0 mm
07:40 PM 2.2°F-16.6°C -8.2°F-22.3°C 61% 4.0 mph SW6.4 kmh SW 9.0 mph14.5 kmh 30.45 in1031.2 mb 0.00 in0.0 mm 0.00 in0.0 mm 0.00 in0.0 mm
07:45 PM 2.2°F-16.6°C -8.2°F-22.3°C 61% 2.0 mph SW3.2 kmh SW 7.0 mph11.3 kmh 30.45 in1031.2 mb 0.00 in0.0 mm 0.00 in0.0 mm 0.00 in0.0 mm
07:49 PM 2.2°F-16.6°C -7.8°F-22.1°C 62% 1.0 mph SW1.6 kmh SW 4.0 mph6.4 kmh 30.45 in1031.2 mb 0.00 in0.0 mm 0.00 in0.0 mm 0.00 in0.0 mm
07:55 PM 2.2°F-16.6°C -7.5°F-21.9°C 63% Calm Calm 6.0 mph9.7 kmh 30.46 in1031.5 mb 0.00 in0.0 mm 0.00 in0.0 mm 0.00 in0.0 mm
08:00 PM 2.2°F-16.6°C -7.5°F-21.9°C 63% 7.0 mph SW11.3 kmh SW 7.0 mph11.3 kmh 30.46 in1031.5 mb 0.00 in0.0 mm 0.00 in0.0 mm 0.00 in0.0 mm
08:05 PM 2.1°F-16.6°C -7.9°F-22.2°C 62% 4.0 mph SW6.4 kmh SW 6.0 mph9.7 kmh 30.46 in1031.5 mb 0.00 in0.0 mm 0.00 in0.0 mm 0.00 in0.0 mm
08:10 PM 2.0°F-16.7°C -8.0°F-22.2°C 62% 1.0 mph WSW1.6 kmh WSW 7.0 mph11.3 kmh 30.46 in1031.5 mb 0.00 in0.0 mm 0.00 in0.0 mm 0.00 in0.0 mm
08:15 PM 2.0°F-16.7°C -8.0°F-22.2°C 62% 10.0 mph SW16.1 kmh SW 10.0 mph16.1 kmh 30.46 in1031.5 mb 0.00 in0.0 mm 0.00 in0.0 mm 0.00 in0.0 mm
08:20 PM 2.1°F-16.6°C -7.3°F-21.8°C 64% 3.0 mph SW4.8 kmh SW 5.0 mph8.0 kmh 30.46 in1031.5 mb 0.00 in0.0 mm 0.00 in0.0 mm 0.00 in0.0 mm
08:25 PM 2.0°F-16.7°C -7.4°F-21.9°C 64% 4.0 mph SW6.4 kmh SW 8.0 mph12.9 kmh 30.46 in1031.5 mb 0.00 in0.0 mm 0.00 in0.0 mm 0.00 in0.0 mm
08:30 PM 1.9°F-16.7°C -7.8°F-22.1°C 63% 4.0 mph SW6.4 kmh SW 4.0 mph6.4 kmh 30.46 in1031.5 mb 0.00 in0.0 mm 0.00 in0.0 mm 0.00 in0.0 mm
08:35 PM 1.9°F-16.7°C -7.8°F-22.1°C 63% 3.0 mph SW4.8 kmh SW 6.0 mph9.7 kmh 30.46 in1031.5 mb 0.00 in0.0 mm 0.00 in0.0 mm 0.00 in0.0 mm
08:40 PM 1.8°F-16.8°C -7.9°F-22.2°C 63% 2.0 mph WSW3.2 kmh WSW 5.0 mph8.0 kmh 30.46 in1031.5 mb 0.00 in0.0 mm 0.00 in0.0 mm 0.00 in0.0 mm
08:45 PM 1.8°F-16.8°C -7.9°F-22.2°C 63% Calm Calm 4.0 mph6.4 kmh 30.46 in1031.5 mb 0.00 in0.0 mm 0.00 in0.0 mm 0.00 in0.0 mm
08:50 PM 1.8°F-16.8°C -7.9°F-22.2°C 63% 1.0 mph WSW1.6 kmh WSW 3.0 mph4.8 kmh 30.46 in1031.5 mb 0.00 in0.0 mm 0.00 in0.0 mm 0.00 in0.0 mm
08:55 PM 1.8°F-16.8°C -7.6°F-22.0°C 64% 2.0 mph WSW3.2 kmh WSW 4.0 mph6.4 kmh 30.46 in1031.5 mb 0.00 in0.0 mm 0.00 in0.0 mm 0.00 in0.0 mm
09:00 PM 1.7°F-16.8°C -7.7°F-22.1°C 64% Calm Calm 1.0 mph1.6 kmh 30.46 in1031.5 mb 0.00 in0.0 mm 0.00 in0.0 mm 0.00 in0.0 mm
09:05 PM 1.7°F-16.8°C -7.3°F-21.8°C 65% 2.0 mph SW3.2 kmh SW 7.0 mph11.3 kmh 30.46 in1031.5 mb 0.00 in0.0 mm 0.00 in0.0 mm 0.00 in0.0 mm
09:10 PM 1.8°F-16.8°C -6.6°F-21.4°C 67% Calm Calm 3.0 mph4.8 kmh 30.46 in1031.5 mb 0.00 in0.0 mm 0.00 in0.0 mm 0.00 in0.0 mm
09:15 PM 1.8°F-16.8°C -6.9°F-21.6°C 66% Calm Calm 2.0 mph3.2 kmh 30.46 in1031.5 mb 0.00 in0.0 mm 0.00 in0.0 mm 0.00 in0.0 mm
09:20 PM 1.7°F-16.8°C -7.0°F-21.7°C 66% Calm Calm -- 30.46 in1031.5 mb 0.00 in0.0 mm 0.00 in0.0 mm 0.00 in0.0 mm
09:25 PM 1.6°F-16.9°C -7.1°F-21.7°C 66% Calm Calm -- 30.47 in1031.8 mb 0.00 in0.0 mm 0.00 in0.0 mm 0.00 in0.0 mm
09:30 PM 1.6°F-16.9°C -7.1°F-21.7°C 66% Calm Calm -- 30.47 in1031.8 mb 0.00 in0.0 mm 0.00 in0.0 mm 0.00 in0.0 mm
09:35 PM 1.5°F-16.9°C -7.2°F-21.8°C 66% Calm Calm 2.0 mph3.2 kmh 30.47 in1031.8 mb 0.00 in0.0 mm 0.00 in0.0 mm 0.00 in0.0 mm
09:40 PM 1.5°F-16.9°C -6.9°F-21.6°C 67% Calm Calm -- 30.47 in1031.8 mb 0.00 in0.0 mm 0.00 in0.0 mm 0.00 in0.0 mm
09:45 PM 1.5°F-16.9°C -6.9°F-21.6°C 67% Calm Calm -- 30.47 in1031.8 mb 0.00 in0.0 mm 0.00 in0.0 mm 0.00 in0.0 mm
09:49 PM 1.5°F-16.9°C -6.9°F-21.6°C 67% Calm Calm -- 30.47 in1031.8 mb 0.00 in0.0 mm 0.00 in0.0 mm 0.00 in0.0 mm
09:55 PM 1.4°F-17.0°C -6.7°F-21.5°C 68% Calm Calm -- 30.47 in1031.8 mb 0.00 in0.0 mm 0.00 in0.0 mm 0.00 in0.0 mm
10:00 PM 1.3°F-17.1°C -6.8°F-21.6°C 68% Calm Calm -- 30.48 in1032.2 mb 0.00 in0.0 mm 0.00 in0.0 mm 0.00 in0.0 mm
10:05 PM 1.3°F-17.1°C -6.5°F-21.4°C 69% Calm Calm -- 30.48 in1032.2 mb 0.00 in0.0 mm 0.00 in0.0 mm 0.00 in0.0 mm
10:10 PM 1.2°F-17.1°C -6.6°F-21.4°C 69% Calm Calm -- 30.48 in1032.2 mb 0.00 in0.0 mm 0.00 in0.0 mm 0.00 in0.0 mm
10:14 PM 1.2°F-17.1°C -6.6°F-21.4°C 69% Calm Calm -- 30.47 in1031.8 mb 0.00 in0.0 mm 0.00 in0.0 mm 0.00 in0.0 mm
10:20 PM 1.2°F-17.1°C -6.6°F-21.4°C 69% Calm Calm -- 30.47 in1031.8 mb 0.00 in0.0 mm 0.00 in0.0 mm 0.00 in0.0 mm
10:25 PM 1.1°F-17.2°C -6.7°F-21.5°C 69% Calm Calm 3.0 mph4.8 kmh 30.48 in1032.2 mb 0.00 in0.0 mm 0.00 in0.0 mm 0.00 in0.0 mm
10:29 PM 1.1°F-17.2°C -6.7°F-21.5°C 69% Calm Calm -- 30.48 in1032.2 mb 0.00 in0.0 mm 0.00 in0.0 mm 0.00 in0.0 mm
10:35 PM 1.1°F-17.2°C -6.7°F-21.5°C 69% Calm Calm -- 30.48 in1032.2 mb 0.00 in0.0 mm 0.00 in0.0 mm 0.00 in0.0 mm
10:40 PM 1.1°F-17.2°C -6.7°F-21.5°C 69% Calm Calm -- 30.48 in1032.2 mb 0.00 in0.0 mm 0.00 in0.0 mm 0.00 in0.0 mm
10:44 PM 1.1°F-17.2°C -6.4°F-21.3°C 70% Calm Calm -- 30.48 in1032.2 mb 0.00 in0.0 mm 0.00 in0.0 mm 0.00 in0.0 mm
10:50 PM 1.1°F-17.2°C -6.4°F-21.3°C 70% Calm Calm -- 30.49 in1032.5 mb 0.00 in0.0 mm 0.00 in0.0 mm 0.00 in0.0 mm
10:55 PM 1.0°F-17.2°C -6.5°F-21.4°C 70% Calm Calm -- 30.49 in1032.5 mb 0.00 in0.0 mm 0.00 in0.0 mm 0.00 in0.0 mm
11:00 PM 1.0°F-17.2°C -6.5°F-21.4°C 70% Calm Calm -- 30.49 in1032.5 mb 0.00 in0.0 mm 0.00 in0.0 mm 0.00 in0.0 mm
11:05 PM 1.0°F-17.2°C -6.5°F-21.4°C 70% Calm Calm -- 30.49 in1032.5 mb 0.00 in0.0 mm 0.00 in0.0 mm 0.00 in0.0 mm
11:09 PM 1.0°F-17.2°C -6.5°F-21.4°C 70% Calm Calm -- 30.50 in1032.8 mb 0.00 in0.0 mm 0.00 in0.0 mm 0.00 in0.0 mm
11:15 PM 1.0°F-17.2°C -6.2°F-21.2°C 71% Calm Calm -- 30.50 in1032.8 mb 0.00 in0.0 mm 0.00 in0.0 mm 0.00 in0.0 mm
11:19 PM 1.0°F-17.2°C -6.2°F-21.2°C 71% Calm Calm -- 30.50 in1032.8 mb 0.00 in0.0 mm 0.00 in0.0 mm 0.00 in0.0 mm
11:25 PM 0.9°F-17.3°C -6.3°F-21.3°C 71% 1.0 mph SW1.6 kmh SW 3.0 mph4.8 kmh 30.50 in1032.8 mb 0.00 in0.0 mm 0.00 in0.0 mm 0.00 in0.0 mm
11:30 PM 0.9°F-17.3°C -6.3°F-21.3°C 71% Calm Calm 2.0 mph3.2 kmh 30.50 in1032.8 mb 0.00 in0.0 mm 0.00 in0.0 mm 0.00 in0.0 mm
11:35 PM 0.9°F-17.3°C -6.0°F-21.1°C 72% Calm Calm 3.0 mph4.8 kmh 30.50 in1032.8 mb 0.00 in0.0 mm 0.00 in0.0 mm 0.00 in0.0 mm
11:40 PM 0.9°F-17.3°C -6.0°F-21.1°C 72% Calm Calm 4.0 mph6.4 kmh 30.50 in1032.8 mb 0.00 in0.0 mm 0.00 in0.0 mm 0.00 in0.0 mm
11:45 PM 0.8°F-17.3°C -6.1°F-21.2°C 72% 3.0 mph SW4.8 kmh SW 3.0 mph4.8 kmh 30.50 in1032.8 mb 0.00 in0.0 mm 0.00 in0.0 mm 0.00 in0.0 mm
11:50 PM 0.8°F-17.3°C -5.8°F-21.0°C 73% 1.0 mph SW1.6 kmh SW 3.0 mph4.8 kmh 30.50 in1032.8 mb 0.00 in0.0 mm 0.00 in0.0 mm 0.00 in0.0 mm
11:55 PM 0.8°F-17.3°C -5.8°F-21.0°C 73% 1.0 mph WSW1.6 kmh WSW 5.0 mph8.0 kmh 30.50 in1032.8 mb 0.00 in0.0 mm 0.00 in0.0 mm 0.00 in0.0 mm
11:59 PM 0.8°F-17.3°C -5.8°F-21.0°C 73% 1.0 mph WSW1.6 kmh WSW 3.0 mph4.8 kmh 30.51 in1033.2 mb 0.00 in0.0 mm 0.00 in0.0 mm 0.00 in0.0 mm